Time;durP1;ratioP1;P1;durP2;ratioP2;P2;SDS_P1;SDS_P2;PMS_P1;PMS_P2;Temp;Humidity;BMP_temperature;BMP_pressure;BME280_temperature;BME280_humidity;BME280_pressure;Samples;Min_cycle;Max_cycle;Signal;HPM_P1;HPM_P2
2023/06/16 04:01:27;;;;;;;3.00;2.90;;;16.00;99.90;;;;;;5482617;23;21005;-77
2023/06/16 04:03:54;;;;;;;2.67;2.47;;;16.00;99.90;;;;;;4990036;28;20474;-77
2023/06/16 04:06:21;;;;;;;3.23;3.13;;;16.00;99.90;;;;;;4989958;28;20470;-76
2023/06/16 04:08:47;;;;;;;5.90;2.87;;;16.10;99.90;;;;;;4988834;28;20489;-76
2023/06/16 04:11:15;;;;;;;3.53;3.43;;;16.10;99.90;;;;;;4984780;28;20542;-76
2023/06/16 04:13:42;;;;;;;2.17;2.07;;;16.10;99.90;;;;;;4993008;28;20455;-75
2023/06/16 04:16:09;;;;;;;2.20;2.10;;;16.10;99.90;;;;;;5002260;28;20470;-75
2023/06/16 04:18:37;;;;;;;3.00;2.80;;;16.10;99.90;;;;;;5002801;28;20523;-75
2023/06/16 04:21:04;;;;;;;5.37;3.17;;;16.10;99.90;;;;;;4998746;28;20559;-75
2023/06/16 04:23:31;;;;;;;5.30;2.87;;;16.10;99.90;;;;;;5002212;28;20989;-74
2023/06/16 04:25:58;;;;;;;3.17;2.97;;;16.10;99.90;;;;;;5001088;28;20466;-74
2023/06/16 04:28:25;;;;;;;2.83;2.73;;;16.10;99.90;;;;;;5006174;28;20471;-74
2023/06/16 04:30:52;;;;;;;3.60;3.40;;;16.10;99.90;;;;;;5010568;28;20559;-74
2023/06/16 04:33:22;;;;;;;3.57;3.47;;;16.10;99.90;;;;;;5005860;28;20462;-74
2023/06/16 04:35:51;;;;;;;3.37;3.10;;;16.10;99.90;;;;;;5008228;28;20461;-74
2023/06/16 04:38:18;;;;;;;3.57;3.30;;;16.10;99.90;;;;;;4988744;28;20478;-74
2023/06/16 04:40:45;;;;;;;3.30;3.10;;;16.00;99.90;;;;;;4988960;28;20483;-75
2023/06/16 04:43:12;;;;;;;2.50;2.40;;;16.00;99.90;;;;;;4999646;28;20486;-75
2023/06/16 04:45:39;;;;;;;3.80;3.60;;;16.00;99.90;;;;;;5009658;28;20583;-75
2023/06/16 04:48:05;;;;;;;3.70;3.50;;;16.00;99.90;;;;;;4995713;28;20471;-74
2023/06/16 04:50:32;;;;;;;2.87;2.77;;;16.00;99.90;;;;;;4996870;28;20477;-74
2023/06/16 04:53:03;;;;;;;3.60;3.40;;;16.00;99.90;;;;;;4990219;28;20549;-74
2023/06/16 04:55:30;;;;;;;11.67;4.30;;;16.10;99.90;;;;;;4986204;28;20471;-73
2023/06/16 04:57:56;;;;;;;3.63;3.33;;;16.10;99.90;;;;;;4990956;28;20821;-75
2023/06/16 05:00:23;;;;;;;3.30;2.90;;;16.10;99.90;;;;;;4992092;28;20477;-76
2023/06/16 05:02:51;;;;;;;4.90;4.50;;;16.10;99.90;;;;;;4991639;28;20499;-75
2023/06/16 05:05:17;;;;;;;3.17;2.90;;;16.20;99.90;;;;;;4985558;28;20555;-76
2023/06/16 05:07:45;;;;;;;3.83;3.30;;;16.20;99.90;;;;;;4991787;28;20924;-76
2023/06/16 05:10:13;;;;;;;4.67;3.73;;;16.20;99.90;;;;;;4990384;28;20466;-75
2023/06/16 05:12:40;;;;;;;3.90;3.70;;;16.30;99.90;;;;;;4982828;28;21011;-76
2023/06/16 05:15:08;;;;;;;3.53;3.27;;;16.30;99.90;;;;;;4990296;28;20467;-75
2023/06/16 05:17:36;;;;;;;3.60;3.40;;;16.30;99.90;;;;;;4991640;28;20474;-75
2023/06/16 05:20:03;;;;;;;3.50;3.30;;;16.40;99.90;;;;;;4989531;28;20474;-75
2023/06/16 05:22:30;;;;;;;2.90;2.90;;;16.30;99.90;;;;;;4988530;28;20509;-75
2023/06/16 05:24:57;;;;;;;2.80;2.70;;;16.40;99.90;;;;;;4987511;28;20487;-76
2023/06/16 05:27:26;;;;;;;10.50;8.23;;;16.30;99.90;;;;;;4988625;28;20498;-75
2023/06/16 05:29:53;;;;;;;2.77;2.67;;;16.30;99.90;;;;;;4990656;28;20471;-74
2023/06/16 05:32:21;;;;;;;3.00;2.90;;;16.20;99.90;;;;;;4987172;28;20511;-74
2023/06/16 05:34:48;;;;;;;4.43;2.77;;;16.20;99.90;;;;;;4991592;28;20487;-74
2023/06/16 05:37:16;;;;;;;4.33;2.97;;;16.30;99.90;;;;;;4991075;28;20467;-75
2023/06/16 05:39:43;;;;;;;3.33;3.13;;;16.30;99.90;;;;;;4988973;28;20485;-75
2023/06/16 05:42:10;;;;;;;5.60;4.10;;;16.40;99.90;;;;;;4985612;28;20551;-75
2023/06/16 05:44:38;;;;;;;3.47;3.27;;;16.50;99.90;;;;;;4983607;28;20471;-75
2023/06/16 05:47:06;;;;;;;2.80;2.60;;;16.40;99.90;;;;;;4990467;28;20477;-75
2023/06/16 05:49:33;;;;;;;2.93;2.80;;;16.50;99.90;;;;;;4991717;28;20455;-75
2023/06/16 05:52:01;;;;;;;2.53;2.43;;;16.60;99.90;;;;;;4989749;28;20498;-75
2023/06/16 05:54:28;;;;;;;4.00;3.80;;;16.60;99.90;;;;;;4981828;28;20545;-75
2023/06/16 05:56:56;;;;;;;2.63;2.57;;;16.70;99.90;;;;;;4985263;28;20624;-75
2023/06/16 05:59:22;;;;;;;3.00;2.90;;;16.80;99.90;;;;;;4990835;28;20462;-76
2023/06/16 06:01:51;;;;;;;3.33;2.77;;;16.90;99.90;;;;;;4986824;28;20505;-75
2023/06/16 06:04:21;;;;;;;3.70;3.40;;;16.90;99.90;;;;;;4990439;28;20557;-75
2023/06/16 06:06:48;;;;;;;2.50;2.40;;;17.10;99.90;;;;;;4991131;28;20471;-75
2023/06/16 06:09:14;;;;;;;1.53;1.53;;;17.10;99.90;;;;;;4991261;28;20473;-76
2023/06/16 06:11:41;;;;;;;2.87;2.77;;;17.20;99.90;;;;;;4987107;28;21026;-76
2023/06/16 06:14:08;;;;;;;2.77;2.57;;;17.20;99.90;;;;;;4990574;28;20462;-76
2023/06/16 06:16:35;;;;;;;3.50;3.37;;;17.20;99.90;;;;;;4990760;28;20493;-76
2023/06/16 06:19:03;;;;;;;2.40;2.37;;;17.20;99.90;;;;;;4991229;28;20776;-75
2023/06/16 06:21:30;;;;;;;2.40;2.30;;;17.20;99.90;;;;;;4991339;28;20494;-75
2023/06/16 06:23:57;;;;;;;3.27;2.97;;;17.30;99.90;;;;;;4991091;28;20487;-76
2023/06/16 06:26:23;;;;;;;2.70;2.60;;;17.30;99.90;;;;;;4989353;28;20471;-76
2023/06/16 06:28:50;;;;;;;3.27;3.03;;;17.30;99.90;;;;;;4983012;28;20463;-75
2023/06/16 06:31:17;;;;;;;4.00;3.80;;;17.30;99.90;;;;;;4989619;28;20867;-75
2023/06/16 06:33:44;;;;;;;2.50;2.40;;;17.30;99.90;;;;;;4980733;28;20463;-75
2023/06/16 06:36:12;;;;;;;2.60;2.47;;;17.30;99.90;;;;;;4984994;28;20955;-75
2023/06/16 06:38:39;;;;;;;2.63;2.53;;;17.30;99.90;;;;;;4988426;28;20471;-75
2023/06/16 06:41:06;;;;;;;2.83;2.73;;;17.30;99.90;;;;;;5003397;28;20513;-75
2023/06/16 06:43:32;;;;;;;2.83;2.63;;;17.30;99.90;;;;;;5003245;28;20498;-74
2023/06/16 06:45:59;;;;;;;2.90;2.80;;;17.30;99.90;;;;;;5011328;28;20471;-74
2023/06/16 06:48:27;;;;;;;2.57;2.47;;;17.30;99.90;;;;;;5008614;28;20447;-74
2023/06/16 06:50:53;;;;;;;2.40;2.30;;;17.40;99.90;;;;;;5009851;28;20486;-75
2023/06/16 06:53:21;;;;;;;3.00;2.90;;;17.40;99.90;;;;;;5008629;28;20493;-75
2023/06/16 06:55:48;;;;;;;2.53;2.43;;;17.40;99.90;;;;;;4989815;28;20467;-77
2023/06/16 06:58:15;;;;;;;2.87;2.77;;;17.40;99.90;;;;;;4991142;28;20459;-74
2023/06/16 07:00:42;;;;;;;2.67;2.57;;;17.50;99.90;;;;;;4983831;28;20478;-73
2023/06/16 07:03:08;;;;;;;4.67;2.50;;;17.40;99.90;;;;;;4988913;28;20490;-73
2023/06/16 07:05:35;;;;;;;3.07;2.90;;;17.40;99.90;;;;;;4990661;28;20842;-73
2023/06/16 07:08:02;;;;;;;2.27;2.17;;;17.50;99.90;;;;;;4987121;28;20481;-74
2023/06/16 07:10:32;;;;;;;2.70;2.47;;;17.50;99.90;;;;;;4982938;28;20469;-72
2023/06/16 07:12:59;;;;;;;1.80;1.77;;;17.60;99.90;;;;;;4976615;28;20469;-73
2023/06/16 07:15:26;;;;;;;2.27;2.27;;;17.60;99.90;;;;;;4981182;28;20460;-73
2023/06/16 07:17:52;;;;;;;1.80;1.70;;;17.60;99.90;;;;;;4990380;28;20463;-73
2023/06/16 07:20:19;;;;;;;2.40;2.30;;;17.60;99.90;;;;;;4978579;28;20585;-73
2023/06/16 07:22:47;;;;;;;2.60;2.50;;;17.50;99.90;;;;;;4983804;28;20483;-73
2023/06/16 07:25:15;;;;;;;2.20;2.10;;;17.40;99.90;;;;;;4989946;28;20531;-73
2023/06/16 07:27:44;;;;;;;6.60;3.20;;;17.40;99.90;;;;;;4985392;28;20551;-73
2023/06/16 07:30:12;;;;;;;6.83;2.37;;;17.40;99.90;;;;;;4986168;28;20475;-72
2023/06/16 07:32:39;;;;;;;4.33;2.77;;;17.40;99.90;;;;;;4986156;28;20479;-73
2023/06/16 07:35:07;;;;;;;3.07;2.97;;;17.40;99.90;;;;;;4987668;28;20541;-73
2023/06/16 07:37:34;;;;;;;3.87;3.67;;;17.40;99.90;;;;;;4980776;28;20505;-73
2023/06/16 07:40:00;;;;;;;2.87;2.67;;;17.50;99.90;;;;;;4981731;28;20847;-73
2023/06/16 07:42:27;;;;;;;3.37;3.27;;;17.70;99.90;;;;;;4984593;28;21010;-73
2023/06/16 07:44:55;;;;;;;2.67;2.57;;;17.90;99.90;;;;;;4985249;28;20477;-73
2023/06/16 07:47:22;;;;;;;3.37;3.17;;;18.10;99.90;;;;;;4979426;28;20489;-73
2023/06/16 07:49:48;;;;;;;2.27;2.23;;;18.30;99.90;;;;;;4983316;28;20474;-72
2023/06/16 07:52:15;;;;;;;2.80;2.70;;;18.30;99.90;;;;;;4985884;28;20593;-74
2023/06/16 07:54:42;;;;;;;3.40;3.30;;;18.30;99.90;;;;;;4988289;28;20503;-73
2023/06/16 07:57:08;;;;;;;3.13;3.03;;;18.40;99.90;;;;;;4986931;28;20986;-74
2023/06/16 07:59:35;;;;;;;2.83;2.73;;;18.50;99.90;;;;;;4989390;28;20468;-74
2023/06/16 08:02:04;;;;;;;2.23;2.23;;;18.60;99.90;;;;;;4981087;28;20503;-74
2023/06/16 08:04:30;;;;;;;2.50;2.40;;;18.60;99.90;;;;;;4986803;28;20462;-74
2023/06/16 08:06:58;;;;;;;3.00;2.80;;;18.50;99.90;;;;;;4987618;28;20486;-73
2023/06/16 08:09:25;;;;;;;3.30;3.13;;;18.60;99.90;;;;;;4989306;28;20490;-73
2023/06/16 08:11:51;;;;;;;2.70;2.60;;;18.60;99.90;;;;;;4984335;28;20484;-73
2023/06/16 08:14:18;;;;;;;2.93;2.83;;;18.70;99.90;;;;;;4988407;28;20455;-73
2023/06/16 08:16:45;;;;;;;2.93;2.77;;;18.80;99.90;;;;;;4984971;28;20467;-74
2023/06/16 08:19:13;;;;;;;3.47;3.30;;;18.80;99.90;;;;;;4989596;28;20455;-73
2023/06/16 08:21:39;;;;;;;3.40;2.93;;;18.90;99.90;;;;;;4988216;28;20487;-73
2023/06/16 08:24:07;;;;;;;3.20;3.10;;;19.00;99.90;;;;;;4983540;28;20479;-73
2023/06/16 08:26:33;;;;;;;2.97;2.77;;;19.20;99.90;;;;;;4986516;28;20493;-73
2023/06/16 08:29:00;;;;;;;3.17;2.97;;;19.40;99.90;;;;;;4989650;28;20477;-73
2023/06/16 08:31:28;;;;;;;3.23;3.03;;;19.80;99.90;;;;;;4989700;28;20646;-73
2023/06/16 08:33:55;;;;;;;3.20;3.10;;;20.10;99.90;;;;;;4988335;28;20474;-73
2023/06/16 08:36:24;;;;;;;3.07;2.90;;;20.30;99.90;;;;;;4989960;28;20493;-73
2023/06/16 08:38:52;;;;;;;3.33;3.13;;;20.30;99.90;;;;;;4986860;28;20877;-73
2023/06/16 08:41:19;;;;;;;3.80;3.60;;;20.40;99.90;;;;;;4984623;28;20496;-73
2023/06/16 08:43:49;;;;;;;3.13;3.03;;;20.30;99.90;;;;;;4978256;28;20486;-74
2023/06/16 08:46:16;;;;;;;3.27;3.03;;;20.20;99.90;;;;;;4981153;28;20494;-74
2023/06/16 08:48:43;;;;;;;2.60;2.50;;;20.10;99.90;;;;;;4992587;28;20468;-74
2023/06/16 08:51:11;;;;;;;2.87;2.77;;;20.10;99.90;;;;;;4987651;28;20496;-74
2023/06/16 08:53:40;;;;;;;3.43;3.23;;;20.10;99.90;;;;;;4982667;28;20909;-74
2023/06/16 08:56:09;;;;;;;3.00;2.90;;;20.10;99.90;;;;;;4992314;28;20459;-74
2023/06/16 08:58:37;;;;;;;3.03;2.93;;;20.10;99.90;;;;;;4986956;28;21018;-74
2023/06/16 09:01:04;;;;;;;3.07;2.97;;;20.10;99.90;;;;;;4986465;28;20506;-74
2023/06/16 09:03:32;;;;;;;2.87;2.77;;;20.00;99.90;;;;;;4986463;28;20494;-74
2023/06/16 09:06:00;;;;;;;4.13;4.03;;;20.10;99.90;;;;;;4987441;28;20918;-74
2023/06/16 09:08:27;;;;;;;2.90;2.30;;;20.10;99.90;;;;;;4983185;28;20470;-74
2023/06/16 09:10:56;;;;;;;2.90;2.80;;;20.10;99.90;;;;;;4992607;28;20566;-75
2023/06/16 09:13:23;;;;;;;2.90;2.80;;;20.10;99.90;;;;;;4987304;28;20463;-75
2023/06/16 09:15:51;;;;;;;3.07;2.87;;;19.90;99.90;;;;;;4983305;28;20467;-74
2023/06/16 09:18:18;;;;;;;3.07;2.80;;;19.80;99.90;;;;;;4985131;28;20557;-74
2023/06/16 09:20:51;;;;;;;3.23;3.03;;;19.70;99.90;;;;;;4984466;28;20592;-74
2023/06/16 09:23:27;;;;;;;3.67;3.40;;;19.70;99.90;;;;;;4980963;28;20479;-74
2023/06/16 09:25:55;;;;;;;3.13;2.90;;;19.70;99.90;;;;;;4989952;28;20499;-74
2023/06/16 09:28:34;;;;;;;2.77;2.77;;;19.60;99.90;;;;;;4984370;28;20475;-74
2023/06/16 09:31:02;;;;;;;5.03;3.83;;;19.70;99.90;;;;;;4993037;28;20641;-73
2023/06/16 09:33:30;;;;;;;3.77;3.57;;;19.70;99.90;;;;;;4981132;28;20471;-72
2023/06/16 09:35:58;;;;;;;3.57;3.27;;;19.70;99.90;;;;;;4984807;28;20466;-72
2023/06/16 09:38:25;;;;;;;4.30;3.50;;;19.60;99.90;;;;;;4984521;28;20471;-72
2023/06/16 09:40:52;;;;;;;4.57;4.33;;;19.50;99.90;;;;;;4990956;28;20495;-72
2023/06/16 09:43:20;;;;;;;2.13;2.03;;;19.50;99.90;;;;;;4990885;28;20494;-72
2023/06/16 09:45:57;;;;;;;3.80;3.60;;;19.50;99.90;;;;;;4991083;28;20582;-72
2023/06/16 09:48:27;;;;;;;3.67;3.37;;;19.50;99.90;;;;;;4990709;28;20939;-74
2023/06/16 09:50:54;;;;;;;4.20;4.00;;;19.50;99.90;;;;;;4990808;28;20590;-75
2023/06/16 09:53:23;;;;;;;3.37;3.17;;;19.40;99.90;;;;;;4987319;28;20556;-75
2023/06/16 09:55:51;;;;;;;4.00;3.70;;;19.40;99.90;;;;;;4982727;28;20470;-75
2023/06/16 09:58:20;;;;;;;3.43;3.27;;;19.30;99.90;;;;;;4991834;28;20482;-75
2023/06/16 10:00:47;;;;;;;4.47;4.17;;;19.30;99.90;;;;;;4989344;28;20487;-74
2023/06/16 10:03:15;;;;;;;3.30;3.00;;;19.20;99.90;;;;;;4991091;28;20501;-74
2023/06/16 10:05:45;;;;;;;4.17;3.97;;;19.10;99.90;;;;;;4991706;28;20500;-74
2023/06/16 10:08:14;;;;;;;3.70;3.30;;;19.10;99.90;;;;;;4985041;28;20471;-75
2023/06/16 10:10:44;;;;;;;3.40;3.30;;;19.10;99.90;;;;;;4991780;28;20487;-75
2023/06/16 10:13:12;;;;;;;3.90;3.67;;;19.10;99.90;;;;;;4982309;28;20519;-74
2023/06/16 10:15:40;;;;;;;4.17;3.97;;;19.10;99.90;;;;;;4979153;28;20986;-75
2023/06/16 10:18:09;;;;;;;4.33;4.03;;;19.10;99.90;;;;;;4972717;28;20526;-74
2023/06/16 10:20:37;;;;;;;3.90;3.70;;;19.20;99.90;;;;;;4972691;28;20470;-74
2023/06/16 10:23:04;;;;;;;6.43;4.20;;;19.30;99.90;;;;;;4983119;28;20518;-74
2023/06/16 10:25:31;;;;;;;5.30;5.00;;;19.30;99.90;;;;;;4992433;28;20458;-74
2023/06/16 10:28:00;;;;;;;4.47;4.27;;;19.30;99.90;;;;;;4987301;28;20821;-74
2023/06/16 10:30:28;;;;;;;3.43;2.80;;;19.30;99.90;;;;;;4991136;28;20463;-74
2023/06/16 10:32:58;;;;;;;5.13;4.63;;;19.30;99.90;;;;;;4990901;28;20463;-74
2023/06/16 10:35:25;;;;;;;4.60;4.37;;;19.30;99.90;;;;;;4976198;28;20499;-74
2023/06/16 10:37:53;;;;;;;4.37;4.07;;;19.40;99.90;;;;;;4972532;28;20479;-75
2023/06/16 10:40:21;;;;;;;3.70;3.60;;;19.40;99.90;;;;;;4972836;28;20506;-74
2023/06/16 10:42:49;;;;;;;4.77;4.47;;;19.50;99.90;;;;;;4986885;28;20585;-74
2023/06/16 10:45:26;;;;;;;4.70;4.40;;;19.60;99.90;;;;;;4979651;28;20570;-74
2023/06/16 10:47:58;;;;;;;4.23;4.03;;;19.70;99.90;;;;;;4990036;28;20544;-74
2023/06/16 10:50:32;;;;;;;5.60;5.20;;;19.70;99.90;;;;;;4991471;28;20466;-75
2023/06/16 10:53:09;;;;;;;5.70;5.17;;;19.80;99.90;;;;;;4988702;28;20889;-75
2023/06/16 10:55:39;;;;;;;4.50;4.20;;;19.80;99.90;;;;;;4984680;28;20533;-75
2023/06/16 10:58:26;;;;;;;4.40;4.10;;;19.80;99.90;;;;;;4986586;28;20472;-75
2023/06/16 11:01:24;;;;;;;4.87;4.47;;;19.80;99.90;;;;;;4990208;28;20517;-75
2023/06/16 11:04:01;;;;;;;4.23;3.90;;;19.90;99.90;;;;;;4972449;28;20487;-75
2023/06/16 11:06:28;;;;;;;3.70;3.50;;;19.90;99.90;;;;;;4984210;28;20524;-74
2023/06/16 11:08:57;;;;;;;4.53;4.30;;;19.90;99.90;;;;;;4981452;28;20554;-74
2023/06/16 11:11:32;;;;;;;4.57;4.27;;;20.00;99.90;;;;;;4989782;28;20479;-76
2023/06/16 11:14:00;;;;;;;5.00;4.70;;;20.10;99.90;;;;;;4985338;28;20473;-75
2023/06/16 11:16:27;;;;;;;4.07;3.87;;;20.20;99.90;;;;;;4987726;28;20475;-74
2023/06/16 11:18:57;;;;;;;4.57;4.27;;;20.30;99.90;;;;;;4987566;28;20466;-75
2023/06/16 11:21:29;;;;;;;4.73;4.53;;;20.40;99.90;;;;;;4991961;28;20593;-75
2023/06/16 11:24:08;;;;;;;4.17;3.87;;;20.50;99.90;;;;;;4991477;28;20487;-75
2023/06/16 11:26:34;;;;;;;5.10;4.80;;;20.70;99.90;;;;;;4990697;28;20469;-75
2023/06/16 11:29:01;;;;;;;4.13;3.83;;;20.70;99.90;;;;;;4983982;28;20467;-74
2023/06/16 11:31:31;;;;;;;7.70;6.10;;;20.90;99.90;;;;;;4991185;28;20486;-75
2023/06/16 11:34:00;;;;;;;5.53;5.13;;;21.10;99.90;;;;;;4990414;28;20487;-75
2023/06/16 11:36:27;;;;;;;4.97;4.73;;;21.20;99.90;;;;;;4990288;28;20455;-75
2023/06/16 11:38:55;;;;;;;4.90;4.37;;;21.40;99.90;;;;;;4985908;28;20582;-75
2023/06/16 11:41:24;;;;;;;5.17;4.87;;;21.50;99.90;;;;;;4990419;28;20527;-75
2023/06/16 11:43:52;;;;;;;5.23;4.93;;;21.70;99.90;;;;;;4990103;28;20482;-74
2023/06/16 11:46:21;;;;;;;5.13;4.83;;;21.90;99.90;;;;;;4990150;28;20965;-75
2023/06/16 11:48:48;;;;;;;6.27;5.80;;;21.90;99.90;;;;;;4991159;28;20504;-75
2023/06/16 11:51:16;;;;;;;5.57;5.17;;;21.80;99.90;;;;;;4995233;28;20505;-75
2023/06/16 11:53:44;;;;;;;5.53;5.13;;;21.70;99.90;;;;;;4991047;28;20807;-75
2023/06/16 11:56:13;;;;;;;4.90;4.60;;;21.70;99.90;;;;;;4988970;28;20461;-75
2023/06/16 11:58:42;;;;;;;4.73;4.43;;;21.80;99.90;;;;;;4983554;28;20553;-75
2023/06/16 12:01:13;;;;;;;8.87;5.13;;;21.70;99.90;;;;;;4982323;28;20497;-75
2023/06/16 12:03:41;;;;;;;6.30;4.80;;;21.70;99.90;;;;;;4989092;28;20493;-76
2023/06/16 12:06:08;;;;;;;4.37;4.17;;;21.70;99.90;;;;;;4990458;28;20476;-75
2023/06/16 12:08:38;;;;;;;4.77;4.57;;;21.70;99.90;;;;;;4990111;28;20469;-75
2023/06/16 12:11:06;;;;;;;5.33;4.40;;;21.60;99.90;;;;;;4982301;28;20489;-76
2023/06/16 12:13:34;;;;;;;5.93;5.20;;;21.50;99.90;;;;;;4983682;28;20541;-75
2023/06/16 12:16:01;;;;;;;4.10;3.90;;;21.40;99.90;;;;;;4991545;28;20487;-76
2023/06/16 12:18:28;;;;;;;4.00;3.70;;;21.40;99.90;;;;;;4992424;28;20466;-74
2023/06/16 12:20:55;;;;;;;4.93;4.73;;;21.30;99.90;;;;;;4993712;28;20492;-75
2023/06/16 12:23:22;;;;;;;4.00;3.80;;;21.30;99.90;;;;;;4994983;28;20474;-74
2023/06/16 12:25:50;;;;;;;4.10;3.80;;;21.20;99.90;;;;;;4999694;28;20509;-77
2023/06/16 12:28:21;;;;;;;3.17;2.97;;;21.10;99.90;;;;;;4995049;28;20466;-73
2023/06/16 12:30:48;;;;;;;4.33;4.10;;;21.00;99.90;;;;;;4994231;28;20823;-74
2023/06/16 12:33:15;;;;;;;6.23;4.50;;;21.00;99.90;;;;;;4992635;28;20462;-76
2023/06/16 12:35:42;;;;;;;5.20;4.73;;;20.90;99.90;;;;;;4987351;28;20467;-72
2023/06/16 12:38:09;;;;;;;6.20;4.90;;;20.90;99.90;;;;;;4992235;28;20465;-76
2023/06/16 12:40:36;;;;;;;4.50;4.20;;;20.90;99.90;;;;;;4986331;28;20466;-76
2023/06/16 12:43:23;;;;;;;4.27;4.03;;;20.90;99.90;;;;;;4991572;28;20878;-75
2023/06/16 12:45:50;;;;;;;3.80;3.53;;;20.90;99.90;;;;;;4987958;28;20487;-75
2023/06/16 12:48:16;;;;;;;3.87;3.50;;;20.90;99.90;;;;;;4985063;28;20471;-75
2023/06/16 12:50:43;;;;;;;3.30;3.17;;;21.00;99.90;;;;;;4990102;28;20483;-75
2023/06/16 12:53:10;;;;;;;3.33;3.13;;;21.10;99.90;;;;;;4983292;28;20466;-75
2023/06/16 12:55:37;;;;;;;4.00;3.80;;;21.10;99.90;;;;;;4992154;28;20578;-74
2023/06/16 12:58:03;;;;;;;3.90;3.70;;;21.20;99.90;;;;;;4984944;28;20470;-73
2023/06/16 13:00:33;;;;;;;2.80;2.63;;;21.30;99.90;;;;;;4992564;28;20973;-74
2023/06/16 13:03:00;;;;;;;3.53;3.23;;;21.30;99.90;;;;;;4988740;28;21005;-74
2023/06/16 13:05:27;;;;;;;4.07;3.87;;;21.40;99.90;;;;;;4990740;28;20471;-74
2023/06/16 13:07:53;;;;;;;4.13;3.87;;;21.40;99.90;;;;;;4991869;28;20463;-74
2023/06/16 13:10:20;;;;;;;3.67;3.53;;;21.30;99.90;;;;;;4992891;28;20501;-74
2023/06/16 13:12:47;;;;;;;5.40;2.90;;;21.40;99.90;;;;;;4979446;28;20964;-74
2023/06/16 13:15:14;;;;;;;3.90;3.70;;;21.40;99.90;;;;;;4989693;28;20463;-74
2023/06/16 13:17:42;;;;;;;2.87;2.77;;;21.40;99.90;;;;;;4981756;28;21029;-74
2023/06/16 13:20:11;;;;;;;3.60;3.27;;;21.50;99.90;;;;;;4990926;28;20472;-74
2023/06/16 13:22:38;;;;;;;3.73;3.53;;;21.70;99.90;;;;;;4988541;28;20563;-75
2023/06/16 13:25:05;;;;;;;3.10;3.00;;;21.60;99.90;;;;;;4988266;28;20496;-74
2023/06/16 13:27:32;;;;;;;3.03;2.93;;;21.60;99.90;;;;;;4981884;28;20884;-75
2023/06/16 13:29:58;;;;;;;3.43;3.23;;;21.60;99.90;;;;;;4981873;28;20794;-75
2023/06/16 13:32:25;;;;;;;2.83;2.73;;;21.60;99.90;;;;;;4982668;28;20495;-74
2023/06/16 13:34:53;;;;;;;3.00;2.80;;;21.80;99.90;;;;;;4991812;28;20457;-74
2023/06/16 13:37:20;;;;;;;2.83;2.70;;;21.80;99.90;;;;;;4991905;28;20451;-75
2023/06/16 13:39:47;;;;;;;3.07;2.97;;;21.90;99.90;;;;;;4992379;28;20464;-74
2023/06/16 13:42:14;;;;;;;2.47;2.37;;;21.90;99.90;;;;;;4990917;28;20482;-74
2023/06/16 13:44:41;;;;;;;2.93;2.83;;;21.90;99.90;;;;;;4991869;28;20495;-74
2023/06/16 13:47:08;;;;;;;2.60;2.50;;;21.90;99.90;;;;;;4989390;28;20867;-75
2023/06/16 13:49:34;;;;;;;2.20;2.20;;;22.00;99.90;;;;;;4992019;28;20468;-75
2023/06/16 13:52:03;;;;;;;2.73;2.67;;;22.10;99.90;;;;;;4986413;28;20825;-75
2023/06/16 13:54:30;;;;;;;2.90;2.80;;;22.20;99.90;;;;;;4992643;28;20519;-75
2023/06/16 13:56:58;;;;;;;2.60;2.50;;;22.20;99.90;;;;;;4990480;28;20475;-75
2023/06/16 13:59:25;;;;;;;2.87;2.77;;;22.20;99.90;;;;;;4989124;28;20879;-76
2023/06/16 14:01:52;;;;;;;2.37;2.27;;;22.30;99.90;;;;;;4990588;28;20917;-75
2023/06/16 14:04:18;;;;;;;2.03;1.93;;;22.50;99.90;;;;;;4986209;28;20966;-75
2023/06/16 14:06:45;;;;;;;2.50;2.50;;;22.60;99.90;;;;;;4990041;28;20919;-75
2023/06/16 14:09:13;;;;;;;1.80;1.80;;;22.70;99.90;;;;;;4983934;28;20470;-75
2023/06/16 14:11:40;;;;;;;2.30;2.20;;;22.70;99.90;;;;;;4987647;28;20494;-75
2023/06/16 14:14:07;;;;;;;2.10;1.97;;;22.90;99.90;;;;;;4989325;28;20549;-74
2023/06/16 14:16:35;;;;;;;3.33;3.13;;;23.00;99.90;;;;;;4990688;28;20467;-75
2023/06/16 14:19:02;;;;;;;2.40;2.40;;;23.00;99.90;;;;;;4992464;28;20533;-75
2023/06/16 14:21:31;;;;;;;2.20;2.17;;;23.00;99.90;;;;;;4991124;28;20564;-74
2023/06/16 14:23:57;;;;;;;2.83;2.40;;;23.00;99.90;;;;;;4983611;28;20536;-75
2023/06/16 14:26:27;;;;;;;2.10;2.00;;;22.90;99.90;;;;;;4991210;28;20497;-75
2023/06/16 14:28:53;;;;;;;2.20;2.10;;;22.80;99.90;;;;;;4990833;28;20470;-75
2023/06/16 14:31:20;;;;;;;3.17;3.03;;;22.70;99.90;;;;;;4989342;28;21033;-75
2023/06/16 14:33:49;;;;;;;2.80;2.70;;;22.60;99.90;;;;;;4979672;28;20474;-75
2023/06/16 14:36:16;;;;;;;2.10;2.10;;;22.60;99.90;;;;;;4983529;28;20479;-75
2023/06/16 14:38:43;;;;;;;2.50;2.40;;;22.40;99.90;;;;;;4991267;28;20941;-75
2023/06/16 14:41:10;;;;;;;1.63;1.60;;;22.40;99.90;;;;;;4989661;28;21014;-76
2023/06/16 14:43:38;;;;;;;1.83;1.83;;;22.40;99.90;;;;;;4989577;28;20465;-75
2023/06/16 14:46:05;;;;;;;3.07;2.57;;;22.40;99.90;;;;;;4987089;28;21032;-75
2023/06/16 14:48:31;;;;;;;2.63;2.63;;;22.40;99.90;;;;;;4991170;28;20468;-75
2023/06/16 14:50:58;;;;;;;2.83;2.73;;;22.50;99.90;;;;;;4983666;28;20537;-75
2023/06/16 14:53:25;;;;;;;2.67;2.57;;;22.40;99.90;;;;;;4991116;28;20556;-75
2023/06/16 14:55:52;;;;;;;2.43;2.33;;;22.40;99.90;;;;;;4986662;28;20617;-75
2023/06/16 14:58:19;;;;;;;2.60;2.50;;;22.50;99.90;;;;;;4982693;28;20464;-75
2023/06/16 15:00:47;;;;;;;1.80;1.80;;;22.50;99.90;;;;;;4979603;28;20516;-74
2023/06/16 15:03:14;;;;;;;3.10;3.00;;;22.40;99.90;;;;;;4990434;28;20981;-75
2023/06/16 15:05:40;;;;;;;2.10;2.10;;;22.30;99.90;;;;;;4984454;28;20496;-75
2023/06/16 15:08:07;;;;;;;2.50;2.33;;;22.30;99.90;;;;;;4986781;28;20839;-74
2023/06/16 15:10:34;;;;;;;3.20;3.10;;;22.30;99.90;;;;;;4985244;28;20524;-74
2023/06/16 15:13:00;;;;;;;1.93;1.93;;;22.20;99.90;;;;;;4987689;28;20897;-74
2023/06/16 15:15:27;;;;;;;3.80;3.60;;;22.30;99.90;;;;;;4989164;28;20460;-73
2023/06/16 15:17:56;;;;;;;2.93;2.83;;;22.30;99.90;;;;;;4989773;28;20481;-74
2023/06/16 15:20:22;;;;;;;2.30;2.20;;;22.40;99.90;;;;;;4991117;28;20468;-74
2023/06/16 15:22:49;;;;;;;2.83;2.73;;;22.40;99.90;;;;;;4988184;28;20464;-74
2023/06/16 15:25:17;;;;;;;2.43;2.33;;;22.40;99.90;;;;;;4990128;28;20489;-74
2023/06/16 15:27:43;;;;;;;2.90;2.70;;;22.50;99.90;;;;;;4988695;28;20496;-74
2023/06/16 15:30:11;;;;;;;2.30;2.20;;;22.50;99.90;;;;;;4985565;28;20470;-74
2023/06/16 15:32:41;;;;;;;2.57;2.50;;;22.70;99.90;;;;;;4992770;28;20494;-75
2023/06/16 15:35:10;;;;;;;3.47;3.20;;;22.80;99.90;;;;;;4992713;28;20470;-77
2023/06/16 15:37:36;;;;;;;2.17;2.07;;;22.90;99.90;;;;;;4989474;28;22114;-76
2023/06/16 15:40:04;;;;;;;2.30;2.20;;;23.00;99.90;;;;;;4988882;28;20496;-76
2023/06/16 15:42:31;;;;;;;2.80;2.70;;;23.10;99.90;;;;;;4993154;28;20494;-77
2023/06/16 15:44:57;;;;;;;6.47;2.67;;;23.20;99.90;;;;;;4975882;28;21021;-77
2023/06/16 15:47:24;;;;;;;2.50;2.40;;;23.30;99.90;;;;;;4985503;28;20470;-76
2023/06/16 15:49:51;;;;;;;2.90;2.80;;;23.30;99.90;;;;;;4981358;28;20473;-75
2023/06/16 15:52:19;;;;;;;3.37;3.13;;;23.40;99.90;;;;;;4980738;28;20498;-74
2023/06/16 15:54:46;;;;;;;2.57;2.47;;;23.50;99.90;;;;;;4979058;28;20474;-77
2023/06/16 15:57:13;;;;;;;3.27;3.13;;;23.50;99.90;;;;;;4979965;28;20551;-77
2023/06/16 15:59:39;;;;;;;2.83;2.63;;;23.80;99.90;;;;;;4989387;28;20475;-77
2023/06/16 16:02:08;;;;;;;2.80;2.70;;;23.80;99.90;;;;;;4984284;28;20497;-77
2023/06/16 16:04:35;;;;;;;2.33;2.33;;;23.80;99.90;;;;;;4988337;28;21015;-77
2023/06/16 16:07:01;;;;;;;2.40;2.30;;;23.90;99.90;;;;;;4991214;28;20490;-77
2023/06/16 16:09:29;;;;;;;5.27;2.40;;;23.90;99.90;;;;;;4988365;28;20569;-77
2023/06/16 16:11:56;;;;;;;7.37;2.73;;;23.80;99.90;;;;;;4985635;28;20490;-77
2023/06/16 16:14:23;;;;;;;2.47;2.27;;;23.90;99.90;;;;;;4985958;28;20477;-77
2023/06/16 16:16:50;;;;;;;2.37;2.27;;;24.00;99.90;;;;;;4978899;28;20496;-76
2023/06/16 16:19:17;;;;;;;2.87;2.80;;;24.10;99.90;;;;;;4989107;28;20478;-78
2023/06/16 16:21:43;;;;;;;2.97;2.77;;;24.10;99.90;;;;;;4990012;28;20490;-77
2023/06/16 16:24:12;;;;;;;2.00;2.00;;;24.20;99.90;;;;;;4988688;28;20937;-77
2023/06/16 16:26:40;;;;;;;3.03;2.80;;;24.10;99.90;;;;;;4988279;28;20492;-78
2023/06/16 16:29:08;;;;;;;2.57;2.50;;;24.00;99.90;;;;;;4989729;28;20462;-77
2023/06/16 16:31:35;;;;;;;2.53;2.37;;;24.00;99.90;;;;;;4989351;23;20510;-69
2023/06/16 16:34:02;;;;;;;2.90;2.70;;;24.00;99.90;;;;;;4968821;28;20471;-69
2023/06/16 16:36:29;;;;;;;2.43;2.33;;;24.10;99.90;;;;;;4971561;28;20465;-68
2023/06/16 16:38:56;;;;;;;2.00;1.90;;;24.10;99.90;;;;;;4968424;28;20945;-68
2023/06/16 16:41:23;;;;;;;3.30;2.87;;;24.10;99.90;;;;;;4958575;28;20806;-69
2023/06/16 16:43:51;;;;;;;3.53;3.33;;;24.20;99.90;;;;;;4950468;28;20480;-69
2023/06/16 16:46:18;;;;;;;3.00;2.87;;;24.00;99.90;;;;;;4949156;29;20519;-69
2023/06/16 16:48:46;;;;;;;6.80;2.57;;;23.90;99.90;;;;;;4955693;28;20531;-70
2023/06/16 16:51:13;;;;;;;2.20;2.20;;;23.80;99.90;;;;;;4953857;28;20514;-69